Time;durP1;ratioP1;P1;durP2;ratioP2;P2;SDS_P1;SDS_P2;PMS_P1;PMS_P2;Temp;Humidity;BMP_temperature;BMP_pressure;BME280_temperature;BME280_humidity;BME280_pressure;Samples;Min_cycle;Max_cycle;Signal;HPM_P1;HPM_P2
2022/05/06 00:05:01;;;;;;;24.00;19.20;;;;;;;11.24;86.11;99116.70;217222;1274;5457516;-71
2022/05/06 00:10:59;;;;;;;22.10;19.30;;;;;;;11.22;86.25;99122.98;221398;1274;22719;-72
2022/05/06 00:16:05;;;;;;;24.50;20.10;;;;;;;11.21;86.66;99125.48;221178;1274;22706;-71
2022/05/06 00:21:07;;;;;;;25.00;20.20;;;;;;;11.20;86.56;99122.64;221134;1277;22737;-71
2022/05/06 00:26:21;;;;;;;25.90;20.20;;;;;;;11.12;86.57;99120.72;221109;1274;23235;-71
2022/05/06 00:31:47;;;;;;;26.10;21.40;;;;;;;11.04;86.38;99117.10;221333;1274;22639;-71
2022/05/06 00:36:51;;;;;;;24.60;19.30;;;;;;;10.97;86.54;99119.58;221549;1274;22557;-72
2022/05/06 00:41:57;;;;;;;25.70;20.30;;;;;;;10.88;86.55;99115.33;221122;1274;22532;-72
2022/05/06 00:47:04;;;;;;;26.30;20.60;;;;;;;10.80;86.79;99118.16;221063;1274;22601;-73
2022/05/06 00:52:10;;;;;;;28.30;21.00;;;;;;;10.74;86.97;99119.67;221075;1274;22646;-72
2022/05/06 00:57:18;;;;;;;23.60;18.60;;;;;;;10.69;86.89;99112.27;221120;1274;22565;-73
2022/05/06 01:02:23;;;;;;;26.00;16.00;;;;;;;10.58;86.44;99112.98;219507;1274;22613;-71
2022/05/06 01:07:32;;;;;;;19.80;16.00;;;;;;;10.44;86.43;99114.80;219920;1274;22559;-72
2022/05/06 01:12:37;;;;;;;23.10;17.30;;;;;;;10.34;86.70;99121.65;221327;1274;22548;-73
2022/05/06 01:17:47;;;;;;;21.00;17.50;;;;;;;10.27;86.89;99127.90;220695;1275;22675;-72
2022/05/06 01:22:58;;;;;;;23.60;18.30;;;;;;;10.21;87.08;99135.55;220819;1274;22561;-71
2022/05/06 01:28:38;;;;;;;23.20;19.40;;;;;;;10.16;87.41;99141.48;220965;1274;22559;-71
2022/05/06 01:34:05;;;;;;;27.50;20.50;;;;;;;10.12;87.86;99134.36;220857;1274;23619;-72
2022/05/06 01:39:43;;;;;;;30.80;21.10;;;;;;;10.09;87.80;99136.14;220891;1274;22611;-72
2022/05/06 01:44:48;;;;;;;30.50;20.10;;;;;;;10.03;87.96;99137.98;220747;1274;23034;-72
2022/05/06 01:49:52;;;;;;;29.90;22.20;;;;;;;9.98;88.17;99141.17;221028;1275;23798;-72
2022/05/06 01:54:58;;;;;;;30.90;23.20;;;;;;;9.94;88.22;99142.80;221414;1277;25253;-72
2022/05/06 02:00:08;;;;;;;27.20;21.80;;;;;;;9.90;88.30;99140.89;221389;1274;22544;-71
2022/05/06 02:05:24;;;;;;;34.30;19.50;;;;;;;9.90;88.61;99150.31;220896;1274;22552;-71
2022/05/06 02:10:32;;;;;;;34.10;21.00;;;;;;;9.82;88.12;99149.98;221471;1274;22552;-71
2022/05/06 02:15:45;;;;;;;29.00;18.60;;;;;;;9.77;88.36;99142.56;221069;1273;25341;-71
2022/05/06 02:21:18;;;;;;;29.70;19.20;;;;;;;9.77;88.48;99146.46;220751;1274;22767;-72
2022/05/06 02:26:33;;;;;;;30.60;19.80;;;;;;;9.78;88.82;99156.67;221008;1274;25523;-71
2022/05/06 02:37:16;;;;;;;27.70;19.60;;;;;;;9.81;89.62;99174.64;221176;1274;23603;-71
2022/05/06 02:42:36;;;;;;;26.30;20.40;;;;;;;9.86;89.82;99180.04;221071;1274;23302;-72
2022/05/06 02:47:40;;;;;;;28.40;20.30;;;;;;;9.89;89.74;99172.05;221011;1274;22550;-72
2022/05/06 02:52:45;;;;;;;30.50;21.90;;;;;;;9.92;89.70;99177.60;221175;1274;22537;-72
2022/05/06 02:57:48;;;;;;;34.60;23.00;;;;;;;9.95;89.83;99181.93;221352;1274;22537;-72
2022/05/06 03:03:07;;;;;;;34.40;23.50;;;;;;;9.98;90.03;99183.73;221371;1274;22652;-71
2022/05/06 03:08:33;;;;;;;35.80;25.70;;;;;;;9.99;89.82;99183.95;221383;1276;22537;-71
2022/05/06 03:13:56;;;;;;;35.30;23.20;;;;;;;10.04;90.14;99182.59;221197;1276;22523;-73
2022/05/06 03:19:05;;;;;;;31.70;23.50;;;;;;;10.15;90.44;99188.70;220856;1277;25477;-71
2022/05/06 03:24:32;;;;;;;31.10;22.60;;;;;;;10.21;90.24;99183.73;220627;1276;23701;-71
2022/05/06 03:29:34;;;;;;;32.70;22.60;;;;;;;10.27;90.11;99184.72;220721;1276;22663;-72
2022/05/06 03:34:44;;;;;;;34.20;22.00;;;;;;;10.30;89.94;99193.44;220650;1277;22744;-72
2022/05/06 03:39:49;;;;;;;31.90;22.70;;;;;;;10.33;89.91;99192.93;220902;1274;23101;-72
2022/05/06 03:44:52;;;;;;;31.40;22.20;;;;;;;10.34;90.07;99197.35;221071;1274;22643;-72
2022/05/06 03:55:17;;;;;;;30.90;20.80;;;;;;;10.47;90.21;99189.46;221348;1274;22660;-73
2022/05/06 04:00:22;;;;;;;31.30;21.30;;;;;;;10.54;90.11;99189.52;223283;1274;25911;-72
2022/05/06 04:05:28;;;;;;;30.30;21.20;;;;;;;10.60;90.24;99181.98;221191;1273;22532;-72
2022/05/06 04:10:33;;;;;;;30.60;21.10;;;;;;;10.71;90.39;99187.01;221505;1274;23423;-72
2022/05/06 04:15:46;;;;;;;32.60;20.90;;;;;;;10.80;90.34;99190.10;221366;1274;22606;-72
2022/05/06 04:27:06;;;;;;;30.20;21.20;;;;;;;10.95;90.05;99191.49;221333;1274;25532;-71
2022/05/06 04:32:12;;;;;;;33.90;22.30;;;;;;;11.03;90.01;99195.29;221402;1274;24215;-71
2022/05/06 04:37:19;;;;;;;34.60;22.20;;;;;;;11.07;89.90;99193.86;221158;1274;22588;-71
2022/05/06 04:42:22;;;;;;;36.00;22.40;;;;;;;11.16;89.89;99197.54;221021;1274;24361;-72
2022/05/06 04:47:26;;;;;;;37.80;23.10;;;;;;;11.24;89.83;99198.38;220994;1273;24412;-72
2022/05/06 04:52:29;;;;;;;33.70;22.70;;;;;;;11.34;90.21;99195.35;221142;1274;23844;-73
2022/05/06 04:57:31;;;;;;;34.00;22.30;;;;;;;11.44;90.25;99197.44;221383;1274;22553;-71
2022/05/06 05:02:34;;;;;;;38.50;23.70;;;;;;;11.57;90.30;99203.01;221380;1274;22578;-72
2022/05/06 05:07:47;;;;;;;39.70;25.20;;;;;;;11.70;90.28;99210.38;221058;1274;22579;-72
2022/05/06 05:12:51;;;;;;;45.70;26.30;;;;;;;11.81;89.91;99219.77;221892;1273;22577;-71
2022/05/06 05:17:56;;;;;;;44.30;26.70;;;;;;;11.92;90.24;99229.58;220950;1274;22574;-72
2022/05/06 05:22:59;;;;;;;49.80;29.20;;;;;;;12.01;90.14;99232.98;221199;1273;22556;-72
2022/05/06 05:28:03;;;;;;;44.20;28.30;;;;;;;12.09;90.11;99236.98;221384;1273;22479;-73
2022/05/06 05:33:10;;;;;;;47.50;28.20;;;;;;;12.19;89.95;99232.95;221336;1274;22540;-72
2022/05/06 05:38:28;;;;;;;42.80;27.80;;;;;;;12.28;89.87;99242.27;221404;1273;24243;-71
2022/05/06 05:49:13;;;;;;;37.00;24.80;;;;;;;12.41;89.20;99252.39;221631;1273;22589;-72
2022/05/06 05:54:17;;;;;;;32.60;23.00;;;;;;;12.44;88.94;99255.61;221562;1274;22725;-72
2022/05/06 05:59:24;;;;;;;35.00;24.40;;;;;;;12.53;88.91;99258.73;221384;1274;24219;-71
2022/05/06 06:04:28;;;;;;;34.90;24.60;;;;;;;12.56;88.56;99270.14;221955;1274;22599;-72
2022/05/06 06:09:32;;;;;;;32.30;22.80;;;;;;;12.60;88.60;99277.45;223040;1273;27417;-72
2022/05/06 06:14:40;;;;;;;31.60;23.50;;;;;;;12.61;88.13;99286.37;221310;1274;24229;-72
2022/05/06 06:19:42;;;;;;;31.00;23.00;;;;;;;12.63;88.23;99293.48;221704;1274;24100;-71
2022/05/06 06:24:48;;;;;;;29.70;22.80;;;;;;;12.68;88.05;99295.20;222410;1273;22554;-71
2022/05/06 06:29:51;;;;;;;27.70;21.30;;;;;;;12.74;87.98;99293.45;221649;1273;22805;-72
2022/05/06 06:34:55;;;;;;;26.90;21.30;;;;;;;12.82;87.83;99296.71;222023;1274;22537;-71
2022/05/06 06:40:12;;;;;;;33.90;22.90;;;;;;;12.85;87.53;99298.66;221732;1273;23029;-71
2022/05/06 06:45:19;;;;;;;34.30;24.40;;;;;;;12.89;87.39;99303.83;221588;1273;22554;-68
2022/05/06 06:50:35;;;;;;;29.70;22.70;;;;;;;12.96;87.31;99298.73;221989;1273;22654;-71
2022/05/06 06:55:57;;;;;;;30.90;22.60;;;;;;;13.05;87.26;99305.48;221661;1273;22559;-70
2022/05/06 07:01:02;;;;;;;36.80;27.00;;;;;;;13.07;86.90;99310.83;221327;1274;22556;-71
2022/05/06 07:12:08;;;;;;;33.90;25.30;;;;;;;13.10;86.47;99317.40;221580;1273;22710;-74
2022/05/06 07:17:29;;;;;;;37.00;26.30;;;;;;;13.12;86.67;99314.20;221030;1276;22574;-71
2022/05/06 07:22:57;;;;;;;36.20;26.60;;;;;;;13.20;86.68;99313.22;221387;1273;22555;-72
2022/05/06 07:28:00;;;;;;;40.60;30.80;;;;;;;13.29;86.39;99315.52;221629;1273;22564;-72
2022/05/06 07:33:07;;;;;;;37.80;28.20;;;;;;;13.34;86.16;99331.38;221409;1274;25328;-71
2022/05/06 07:44:50;;;;;;;;;;;;;;;;;;;;;
2022/05/06 07:50:04;;;;;;;40.40;30.10;;;;;;;13.50;86.13;99330.38;221553;1274;22537;-71
2022/05/06 07:55:26;;;;;;;40.50;31.00;;;;;;;13.66;85.98;99329.21;221399;1273;22580;-71
2022/05/06 08:00:36;;;;;;;37.40;29.00;;;;;;;13.86;85.76;99336.48;221572;1274;25592;-71
2022/05/06 08:05:43;;;;;;;37.70;30.60;;;;;;;14.08;85.52;99345.52;221670;1274;22697;-70
2022/05/06 08:10:46;;;;;;;37.70;29.90;;;;;;;14.33;85.41;99348.23;220873;1276;24088;-71
2022/05/06 08:16:01;;;;;;;36.60;30.60;;;;;;;14.57;84.92;99348.62;221358;1273;25482;-70
2022/05/06 08:21:04;;;;;;;37.20;29.70;;;;;;;14.81;84.44;99348.58;221308;1274;22583;-76
2022/05/06 08:26:08;;;;;;;37.00;30.70;;;;;;;15.06;84.34;99349.66;221675;1273;23044;-72
2022/05/06 08:31:13;;;;;;;36.10;29.90;;;;;;;15.28;83.58;99356.21;221859;1274;22577;-71
2022/05/06 08:36:30;;;;;;;35.70;30.40;;;;;;;15.41;82.92;99355.83;221429;1274;23358;-72
2022/05/06 08:41:35;;;;;;;30.40;26.10;;;;;;;15.56;82.45;99354.95;222388;1274;25475;-72
2022/05/06 08:51:59;;;;;;;32.60;28.70;;;;;;;15.77;81.22;99360.83;221497;1274;25426;-71
2022/05/06 08:57:01;;;;;;;30.90;27.60;;;;;;;16.05;81.08;99365.54;221818;1274;23617;-72
2022/05/06 09:02:11;;;;;;;30.70;26.70;;;;;;;16.41;81.10;99371.07;221480;1273;23029;-70
2022/05/06 09:07:14;;;;;;;29.20;25.40;;;;;;;16.79;80.14;99369.38;221398;1273;22623;-71
2022/05/06 09:12:42;;;;;;;27.00;24.10;;;;;;;17.25;79.90;99365.48;221274;1274;25280;-70
2022/05/06 09:17:44;;;;;;;24.20;21.80;;;;;;;17.64;78.60;99364.46;221165;1273;25380;-70
2022/05/06 09:22:53;;;;;;;23.50;21.00;;;;;;;17.84;77.43;99368.36;221232;1273;24210;-71
2022/05/06 09:27:56;;;;;;;;;;;;;;;18.10;76.88;99373.77;221497;1273;24785;-71
2022/05/06 09:33:00;;;;;;;25.00;22.30;;;;;;;18.46;76.28;99382.05;219739;1274;22535;-70
2022/05/06 09:38:15;;;;;;;24.80;22.20;;;;;;;18.81;75.51;99384.38;219307;1274;24258;-71
2022/05/06 09:43:23;;;;;;;23.30;20.90;;;;;;;19.06;74.09;99371.59;221822;1274;23641;-70
2022/05/06 09:48:27;;;;;;;23.30;20.90;;;;;;;18.99;72.61;99374.93;221685;1274;22620;-73
2022/05/06 09:53:38;;;;;;;23.80;21.30;;;;;;;18.96;72.30;99379.33;221338;1273;22561;-71
2022/05/06 09:58:41;;;;;;;22.00;19.80;;;;;;;19.00;72.05;99380.77;221498;1273;22579;-71
2022/05/06 10:03:47;;;;;;;23.10;20.80;;;;;;;19.14;71.61;99382.52;220959;1274;25323;-71
2022/05/06 10:08:53;;;;;;;21.40;19.30;;;;;;;19.12;70.82;99382.46;221331;1274;25259;-71
2022/05/06 10:14:01;;;;;;;23.10;20.90;;;;;;;19.13;70.54;99381.89;221350;1275;23116;-71
2022/05/06 10:19:04;;;;;;;20.90;18.90;;;;;;;19.16;70.13;99374.95;221995;1276;23091;-70
2022/05/06 10:24:24;;;;;;;24.20;21.70;;;;;;;19.16;69.46;99382.16;218854;1276;24210;-70
2022/05/06 10:35:12;;;;;;;23.90;21.40;;;;;;;19.08;68.88;99380.45;218995;1274;23805;-71
2022/05/06 10:41:02;;;;;;;22.10;19.80;;;;;;;19.14;68.18;99375.25;221253;1274;22564;-72
2022/05/06 10:46:06;;;;;;;23.80;21.30;;;;;;;19.13;67.53;99371.73;221518;1275;23451;-72
2022/05/06 10:51:28;;;;;;;22.70;20.50;;;;;;;19.11;67.31;99366.30;221201;1274;22802;-71
2022/05/06 10:56:31;;;;;;;24.40;21.80;;;;;;;19.14;66.92;99363.71;221117;1275;24841;-72
2022/05/06 11:01:40;;;;;;;22.60;20.30;;;;;;;19.13;66.83;99364.74;221014;1275;22611;-72
2022/05/06 11:06:43;;;;;;;22.90;20.60;;;;;;;19.16;66.86;99358.48;221306;1275;22546;-72
2022/05/06 11:11:45;;;;;;;24.90;22.20;;;;;;;19.20;66.51;99352.04;220977;1275;22554;-73
2022/05/06 11:16:47;;;;;;;23.60;20.50;;;;;;;19.15;66.08;99348.20;221272;1275;22601;-73
2022/05/06 11:22:09;;;;;;;21.80;19.60;;;;;;;19.08;66.06;99341.05;221239;1274;22536;-73
2022/05/06 11:27:21;;;;;;;20.70;18.20;;;;;;;19.16;66.04;99341.11;221097;1275;22688;-72
2022/05/06 11:32:24;;;;;;;20.60;18.40;;;;;;;19.23;65.40;99342.14;221224;1274;22575;-73
2022/05/06 11:37:41;;;;;;;19.70;17.50;;;;;;;19.32;65.10;99340.14;221129;1274;22557;-72
2022/05/06 11:42:56;;;;;;;18.30;16.50;;;;;;;19.40;64.85;99339.81;221118;1275;22544;-71
2022/05/06 11:48:24;;;;;;;19.20;17.20;;;;;;;19.43;63.86;99338.90;221272;1274;22589;-72
2022/05/06 11:53:43;;;;;;;19.50;17.40;;;;;;;19.35;64.04;99342.16;221080;1274;24224;-72
2022/05/06 11:58:46;;;;;;;16.90;15.30;;;;;;;19.48;63.91;99339.38;221241;1276;24300;-70
2022/05/06 12:03:48;;;;;;;19.10;17.10;;;;;;;19.56;63.38;99346.89;221163;1275;23259;-72
2022/05/06 12:09:37;;;;;;;20.80;18.20;;;;;;;19.46;62.95;99350.25;220948;1275;24798;-72
2022/05/06 12:14:43;;;;;;;23.60;20.60;;;;;;;19.43;63.05;99348.25;222355;1274;22578;-72
2022/05/06 12:19:47;;;;;;;21.00;17.70;;;;;;;19.33;62.75;99348.95;222717;1274;22708;-73
2022/05/06 12:24:52;;;;;;;21.40;19.20;;;;;;;19.18;62.78;99346.60;221256;1274;23109;-73
2022/05/06 12:29:57;;;;;;;18.90;16.90;;;;;;;19.16;63.32;99348.77;221248;1274;22785;-72
2022/05/06 12:35:12;;;;;;;21.80;19.40;;;;;;;19.09;62.72;99344.90;222614;1274;23320;-74
2022/05/06 12:40:17;;;;;;;19.30;17.30;;;;;;;19.05;62.89;99341.31;221288;1276;22555;-72
2022/05/06 12:45:19;;;;;;;21.40;18.40;;;;;;;19.08;63.09;99331.65;221136;1274;22570;-73
2022/05/06 12:50:25;;;;;;;20.00;17.40;;;;;;;19.20;63.12;99323.85;221165;1274;22938;-73
2022/05/06 12:55:32;;;;;;;19.20;17.10;;;;;;;19.35;62.83;99314.71;221425;1277;23581;-72
2022/05/06 13:00:39;;;;;;;18.30;16.40;;;;;;;19.41;62.17;99314.99;221222;1275;22547;-73
2022/05/06 13:05:45;;;;;;;17.80;15.90;;;;;;;19.45;61.88;99321.73;221277;1274;23173;-71
2022/05/06 13:10:52;;;;;;;17.80;15.90;;;;;;;19.40;61.51;99322.34;221446;1276;22625;-73
2022/05/06 13:15:56;;;;;;;16.60;14.80;;;;;;;19.30;61.39;99323.61;221125;1274;22776;-73
2022/05/06 13:21:02;;;;;;;16.60;14.70;;;;;;;19.19;61.33;99317.88;221133;1276;22656;-73
2022/05/06 13:26:08;;;;;;;16.20;14.40;;;;;;;19.10;61.54;99314.28;220994;1277;22586;-73
2022/05/06 13:31:16;;;;;;;15.50;13.90;;;;;;;19.07;61.57;99313.55;221262;1276;24389;-72
2022/05/06 13:36:18;;;;;;;16.10;14.40;;;;;;;18.99;61.14;99303.48;221306;1275;23406;-69
2022/05/06 13:41:31;;;;;;;;;;;;;;;;;;;;;
2022/05/06 13:46:34;;;;;;;15.30;13.10;;;;;;;18.82;61.11;99298.85;221170;1276;22703;-73
2022/05/06 13:51:37;;;;;;;16.50;13.10;;;;;;;18.75;60.79;99293.80;220983;1276;22548;-72
2022/05/06 14:02:00;;;;;;;12.80;11.40;;;;;;;18.76;60.70;99283.23;221014;1276;26539;-70
2022/05/06 14:07:06;;;;;;;12.70;10.90;;;;;;;18.80;60.19;99282.90;221199;1274;23594;-70
2022/05/06 14:12:09;;;;;;;12.30;11.00;;;;;;;18.83;59.89;99285.02;218887;1274;22564;-70
2022/05/06 14:17:55;;;;;;;11.10;10.00;;;;;;;18.83;59.60;99285.12;222050;1274;24441;-70
2022/05/06 14:23:33;;;;;;;10.70;9.50;;;;;;;18.89;59.39;99278.84;220709;1275;24228;-71
2022/05/06 14:28:39;;;;;;;11.50;8.70;;;;;;;18.90;58.25;99282.60;220603;1276;24213;-70
2022/05/06 14:33:50;;;;;;;12.00;8.70;;;;;;;18.89;57.89;99276.52;219397;1274;25412;-71
2022/05/06 14:38:53;;;;;;;9.10;7.30;;;;;;;18.87;57.44;99277.35;220976;1274;23037;-71
2022/05/06 14:44:04;;;;;;;9.10;8.10;;;;;;;18.84;57.18;99274.04;220912;1274;24301;-70
2022/05/06 14:49:10;;;;;;;9.30;8.10;;;;;;;18.80;56.69;99279.33;221115;1274;22742;-70
2022/05/06 14:54:12;;;;;;;11.10;8.10;;;;;;;18.71;56.64;99278.14;221337;1274;25367;-70
2022/05/06 14:59:21;;;;;;;10.30;8.10;;;;;;;18.72;57.01;99274.70;220981;1274;23494;-70
2022/05/06 15:04:29;;;;;;;7.80;7.00;;;;;;;18.74;56.61;99272.06;219623;1274;26461;-70
2022/05/06 15:09:32;;;;;;;12.70;10.10;;;;;;;18.77;56.36;99267.53;220175;1274;22596;-70
2022/05/06 15:14:34;;;;;;;9.90;7.40;;;;;;;18.77;56.08;99271.71;219222;1277;22565;-71
2022/05/06 15:19:37;;;;;;;8.20;6.60;;;;;;;18.81;55.89;99273.02;219130;1277;22580;-70
2022/05/06 15:24:40;;;;;;;8.40;6.80;;;;;;;18.88;55.89;99272.65;219201;1277;22553;-68
2022/05/06 15:29:43;;;;;;;8.20;7.10;;;;;;;18.92;55.44;99273.29;219694;1275;25370;-69
2022/05/06 15:34:46;;;;;;;9.00;7.00;;;;;;;18.92;55.00;99269.42;219302;1278;22733;-69
2022/05/06 15:40:05;;;;;;;7.20;6.50;;;;;;;18.93;54.96;99263.23;219164;1277;24220;-69
2022/05/06 15:45:09;;;;;;;8.40;6.00;;;;;;;18.91;54.78;99262.92;219934;1274;24328;-69
2022/05/06 15:50:14;;;;;;;6.70;5.80;;;;;;;18.86;54.72;99258.52;219108;1275;22905;-69
2022/05/06 15:55:17;;;;;;;8.50;6.70;;;;;;;18.80;54.23;99256.37;219181;1275;22730;-69
2022/05/06 16:00:19;;;;;;;7.40;6.50;;;;;;;18.75;54.41;99251.45;219203;1277;22640;-69
2022/05/06 16:05:21;;;;;;;7.90;6.30;;;;;;;18.68;54.58;99251.84;219246;1274;22628;-70
2022/05/06 16:10:33;;;;;;;7.90;6.10;;;;;;;18.60;54.43;99250.61;219196;1274;22562;-69
2022/05/06 16:15:42;;;;;;;6.70;5.80;;;;;;;18.53;54.32;99250.95;219214;1275;22684;-69
2022/05/06 16:20:54;;;;;;;7.20;5.60;;;;;;;18.44;54.81;99251.27;220029;1277;22659;-70
2022/05/06 16:25:57;;;;;;;8.40;6.10;;;;;;;18.39;54.96;99262.45;219884;1274;23276;-69
2022/05/06 16:31:00;;;;;;;7.70;5.60;;;;;;;18.37;55.18;99262.91;219005;1274;25319;-69
2022/05/06 16:41:27;;;;;;;7.90;6.40;;;;;;;18.26;55.31;99260.63;219946;1275;22654;-70
2022/05/06 16:46:30;;;;;;;8.50;6.50;;;;;;;18.21;55.51;99261.00;219167;1274;22639;-70
2022/05/06 16:51:33;;;;;;;9.10;6.60;;;;;;;18.16;55.41;99252.50;219569;1274;25247;-70
2022/05/06 16:56:35;;;;;;;8.00;6.80;;;;;;;18.11;55.41;99254.61;219177;1274;22734;-70
2022/05/06 17:01:48;;;;;;;8.40;7.20;;;;;;;18.01;55.36;99255.61;220899;1275;26585;-70
2022/05/06 17:06:52;;;;;;;8.00;7.00;;;;;;;17.89;55.68;99254.69;219825;1275;24831;-69
2022/05/06 17:11:55;;;;;;;9.50;7.80;;;;;;;17.76;55.61;99259.23;220956;1274;22608;-70
2022/05/06 17:16:57;;;;;;;7.80;7.00;;;;;;;17.58;55.70;99259.02;219126;1278;22588;-69
2022/05/06 17:22:02;;;;;;;8.70;7.20;;;;;;;17.40;56.02;99261.45;219187;1277;22623;-67
2022/05/06 17:27:04;;;;;;;8.90;6.70;;;;;;;17.23;56.17;99263.09;219060;1276;24129;-70
2022/05/06 17:32:08;;;;;;;7.30;6.40;;;;;;;17.10;56.43;99260.86;219911;1274;22647;-71
2022/05/06 17:37:10;;;;;;;7.90;6.60;;;;;;;16.98;56.70;99259.41;219395;1274;22574;-70
2022/05/06 17:42:13;;;;;;;9.90;7.70;;;;;;;16.89;57.19;99262.16;219501;1275;25247;-67
2022/05/06 17:47:27;;;;;;;8.30;7.30;;;;;;;16.80;57.46;99259.44;221399;1274;22561;-70
2022/05/06 17:52:30;;;;;;;8.90;7.20;;;;;;;16.70;57.48;99267.69;220997;1274;22551;-69
2022/05/06 17:57:33;;;;;;;9.60;7.80;;;;;;;16.60;57.80;99269.61;219655;1274;23946;-70
2022/05/06 18:02:39;;;;;;;12.50;8.60;;;;;;;16.52;58.25;99280.73;219848;1274;23706;-69
2022/05/06 18:07:42;;;;;;;7.40;6.50;;;;;;;16.41;58.40;99283.34;219831;1274;23919;-70
2022/05/06 18:12:57;;;;;;;8.40;6.30;;;;;;;16.28;58.13;99289.14;219726;1274;26483;-69
2022/05/06 18:18:07;;;;;;;6.30;5.40;;;;;;;16.13;57.99;99288.20;219452;1274;24311;-70
2022/05/06 18:23:14;;;;;;;6.80;4.60;;;;;;;15.99;57.98;99297.08;220021;1274;22538;-69
2022/05/06 18:28:19;;;;;;;8.20;5.40;;;;;;;15.86;57.83;99301.46;220035;1273;24397;-70
2022/05/06 18:33:21;;;;;;;8.20;5.40;;;;;;;15.73;57.90;99300.41;221007;1274;22727;-70
2022/05/06 18:38:41;;;;;;;7.40;5.70;;;;;;;15.64;57.93;99305.60;219423;1275;26357;-68
2022/05/06 18:44:06;;;;;;;7.50;5.50;;;;;;;15.53;58.08;99315.42;219710;1274;22567;-70
2022/05/06 18:49:09;;;;;;;7.40;5.40;;;;;;;15.46;58.30;99320.99;219585;1274;22561;-70
2022/05/06 18:54:11;;;;;;;7.30;5.20;;;;;;;15.40;58.41;99318.23;219764;1274;24237;-71
2022/05/06 18:59:14;;;;;;;6.10;5.50;;;;;;;15.35;58.51;99323.75;221209;1273;22595;-69
2022/05/06 19:04:17;;;;;;;5.60;5.10;;;;;;;15.31;58.73;99323.80;219470;1273;22605;-70
2022/05/06 19:09:19;;;;;;;6.80;5.10;;;;;;;15.25;58.68;99326.69;219490;1274;22554;-69
2022/05/06 19:14:21;;;;;;;6.30;5.30;;;;;;;15.20;58.83;99326.84;219606;1274;22534;-70
2022/05/06 19:19:24;;;;;;;8.00;5.70;;;;;;;15.17;58.76;99326.36;219846;1274;25367;-70
2022/05/06 19:24:44;;;;;;;10.10;7.50;;;;;;;15.14;58.93;99324.50;219551;1274;26031;-70
2022/05/06 19:29:47;;;;;;;9.20;7.50;;;;;;;15.11;59.03;99327.05;219722;1274;24346;-69
2022/05/06 19:34:51;;;;;;;12.50;7.80;;;;;;;15.10;59.07;99324.82;219575;1274;22707;-70
2022/05/06 19:39:54;;;;;;;11.80;6.60;;;;;;;15.09;59.21;99324.36;219473;1274;25380;-69
2022/05/06 19:45:00;;;;;;;6.50;5.80;;;;;;;15.07;59.23;99322.51;220621;1274;23301;-70
2022/05/06 19:50:03;;;;;;;7.90;6.20;;;;;;;15.05;59.05;99320.94;219548;1274;24223;-70
2022/05/06 19:55:07;;;;;;;7.20;5.90;;;;;;;15.03;59.15;99329.08;220042;1274;24139;-70
2022/05/06 20:00:10;;;;;;;7.70;6.70;;;;;;;15.01;59.25;99328.73;221103;1274;22667;-70
2022/05/06 20:05:16;;;;;;;9.90;6.20;;;;;;;14.99;59.54;99326.15;220116;1273;25252;-70
2022/05/06 20:10:26;;;;;;;7.60;6.30;;;;;;;14.95;59.84;99321.00;219658;1274;24334;-70
2022/05/06 20:15:43;;;;;;;8.40;6.50;;;;;;;14.89;59.81;99311.85;219151;1276;22523;-70
2022/05/06 20:20:49;;;;;;;8.60;7.00;;;;;;;14.90;59.84;99322.77;219186;1276;23812;-70
2022/05/06 20:25:51;;;;;;;10.80;7.20;;;;;;;14.89;59.98;99326.51;219127;1276;22566;-72
2022/05/06 20:30:53;;;;;;;12.30;7.50;;;;;;;14.88;60.14;99327.77;220882;1276;22607;-70
2022/05/06 20:35:56;;;;;;;9.40;7.70;;;;;;;14.86;60.74;99327.98;220880;1276;25674;-70
2022/05/06 20:40:58;;;;;;;10.60;9.60;;;;;;;14.79;61.87;99326.13;220768;1276;24205;-70
2022/05/06 20:46:09;;;;;;;14.30;10.80;;;;;;;14.66;63.11;99325.55;220748;1277;25390;-71
2022/05/06 20:51:13;;;;;;;18.60;13.00;;;;;;;14.52;64.15;99322.89;220128;1276;22573;-69
2022/05/06 20:56:15;;;;;;;20.90;15.60;;;;;;;14.41;65.08;99326.51;219318;1276;22569;-70
2022/05/06 21:01:18;;;;;;;19.80;15.80;;;;;;;14.35;66.02;99320.91;219277;1274;22535;-70
2022/05/06 21:06:26;;;;;;;20.80;16.10;;;;;;;14.28;66.23;99315.06;219351;1274;25064;-70
2022/05/06 21:17:12;;;;;;;27.30;21.10;;;;;;;14.13;66.52;99313.63;219293;1274;22568;-70
2022/05/06 21:22:25;;;;;;;26.80;18.20;;;;;;;14.04;66.64;99311.42;221170;1274;24959;-68
2022/05/06 21:27:27;;;;;;;24.60;17.80;;;;;;;13.93;66.93;99312.65;220979;1274;25367;-70
2022/05/06 21:33:10;;;;;;;19.90;14.60;;;;;;;13.81;67.16;99306.77;219502;1274;24227;-70
2022/05/06 21:38:19;;;;;;;20.00;15.80;;;;;;;13.64;67.51;99302.06;219614;1274;22574;-70
2022/05/06 21:43:22;;;;;;;20.40;15.90;;;;;;;13.49;68.10;99301.17;221081;1274;22725;-69
2022/05/06 21:48:24;;;;;;;24.10;17.70;;;;;;;13.36;68.40;99298.48;219522;1274;22780;-71
2022/05/06 21:53:32;;;;;;;14.40;11.40;;;;;;;13.26;68.48;99300.44;221328;1273;25421;-69
2022/05/06 21:58:41;;;;;;;11.80;10.50;;;;;;;13.23;67.80;99297.06;219411;1274;24223;-70
2022/05/06 22:03:44;;;;;;;10.30;8.60;;;;;;;13.23;67.39;99294.85;219709;1274;22546;-70
2022/05/06 22:08:56;;;;;;;10.20;8.80;;;;;;;13.22;66.95;99286.73;219883;1273;25454;-70
2022/05/06 22:13:58;;;;;;;13.00;9.20;;;;;;;13.19;66.63;99274.88;219500;1273;22550;-70
2022/05/06 22:19:01;;;;;;;12.80;9.60;;;;;;;13.11;66.55;99274.35;219010;1276;22598;-69
2022/05/06 22:24:04;;;;;;;10.70;9.00;;;;;;;13.01;66.76;99284.40;219485;1276;22580;-69
2022/05/06 22:29:19;;;;;;;15.30;12.50;;;;;;;12.91;67.06;99285.69;219659;1276;22551;-69
2022/05/06 22:34:35;;;;;;;14.70;12.00;;;;;;;12.82;67.49;99285.90;219143;1276;22799;-69
2022/05/06 22:39:46;;;;;;;17.70;12.40;;;;;;;12.74;67.65;99282.55;219312;1276;22580;-69
2022/05/06 22:50:18;;;;;;;17.00;13.40;;;;;;;12.60;68.48;99279.87;220241;1276;22693;-70
2022/05/06 22:55:23;;;;;;;17.10;14.40;;;;;;;12.58;69.09;99282.90;219306;1276;23562;-70
2022/05/06 23:00:25;;;;;;;20.30;15.10;;;;;;;12.58;69.39;99281.55;221034;1275;22566;-69
2022/05/06 23:05:28;;;;;;;21.90;16.30;;;;;;;12.58;69.67;99281.23;219484;1274;24211;-70
2022/05/06 23:10:34;;;;;;;18.10;14.40;;;;;;;12.58;70.13;99279.20;220972;1276;22765;-70
2022/05/06 23:15:50;;;;;;;20.40;14.80;;;;;;;12.58;70.41;99279.42;220921;1274;22993;-70
2022/05/06 23:21:00;;;;;;;17.60;15.10;;;;;;;12.56;70.76;99273.74;219778;1274;22560;-70
2022/05/06 23:26:05;;;;;;;17.50;14.80;;;;;;;12.55;71.02;99275.85;219355;1274;22557;-69
2022/05/06 23:31:08;;;;;;;21.00;15.90;;;;;;;12.53;71.11;99276.05;220707;1275;23384;-69
2022/05/06 23:41:33;;;;;;;21.00;16.40;;;;;;;12.42;71.21;99264.67;219412;1274;24720;-69
2022/05/06 23:46:35;;;;;;;22.90;16.80;;;;;;;12.32;71.28;99268.77;219329;1275;22549;-69
2022/05/06 23:51:38;;;;;;;19.40;16.30;;;;;;;12.19;71.45;99264.36;219388;1274;22598;-70
2022/05/06 23:56:40;;;;;;;19.70;16.30;;;;;;;12.06;71.73;99267.27;219282;1274;22537;-70
